• Join FlightAware (Why Join?)
  • Login
  • US Flag 
04:57AM EDT


 

Airport Tracker/Info


-or-


 

Live Flight TrackerFlight Track Log ✈ N300DC ✈ 11-Nov-2013 ✈ KHFD - KHWV

Flight Track Log - Related Links

Times and Time Zones

All times are in EST time to prevent confusion due to time zone crossing. See the N300DC flight status page for this flight to view local times or setup timezone preferences in your user account.

Time Position Orientation Groundspeed Altitude Reporting Facility
EST Latitude Longitude Course Direction KTS MPH feet Rate Location/Type
12:18PM 41.7003 -72.6228 90° East 78 90 1,600  Level Boston Center
12:18PM 41.6819 -72.6281 192° South 82 94 2,200 660 Climbing Boston Center
12:19PM 41.6775 -72.6303 200° South 79 91 2,300 780 Climbing Boston Center
12:20PM 41.6550 -72.6331 185° South 83 96 3,100 780 Climbing Boston Center
12:20PM 41.6542 -72.6339 217° Southwest 84 97 3,100 960 Level Boston Center
12:21PM 41.6322 -72.6381 188° South 82 94 4,200 960 Climbing Boston Center
12:22PM 41.5553 -72.6931 190° South  Level Estimated
12:22PM 41.6100 -72.6428 189° South 82 94 5,000  Level Boston Center
12:22PM 41.6089 -72.6436 209° Southwest 86 99 4,900 540 Descending Boston Center
12:22PM 41.5897 -72.6469 187° South 81 93 5,500 540 Climbing Boston Center
12:23PM 41.5250 -72.7003 190° South  Level Estimated
12:23PM 41.5847 -72.6486 194° South 83 96 5,500  Level Boston Center
12:24PM 41.5631 -72.6533 189° South 79 91 6,000 480 Climbing Boston Center
12:25PM 41.5419 -72.6594 192° South 79 91 6,500 240 Climbing Boston Center
12:26PM 41.5183 -72.6669 193° South 87 100 6,600  Climbing Boston Center
12:27PM 41.4917 -72.6719 188° South 90 104 6,500 -120 Descending Boston Center
12:28PM 41.4667 -72.6786 191° South 90 104 6,400 -60 Descending Boston Center
12:29PM 41.4433 -72.6872 195° South 88 101 6,400  Level Boston Center
12:30PM 41.4186 -72.6978 198° South 85 98 6,500  Climbing Boston Center
12:31PM 41.3936 -72.7058 194° South 92 106 6,400 -60 Descending Boston Center
12:32PM 41.3686 -72.7114 189° South 94 108 6,400  Level Boston Center
12:33PM 41.3442 -72.7194 194° South 92 106 6,400  Level Boston Center
12:34PM 41.3183 -72.7267 192° South 91 105 6,500 60 Climbing Boston Center
12:35PM 41.2947 -72.7350 195° South 86 99 6,600  Climbing Boston Center
12:36PM 41.2678 -72.7433 193° South 96 110 6,500 -60 Descending Boston Center
12:37PM 41.2422 -72.7478 187° South 95 109 6,500  Level Boston Center
12:38PM 41.2158 -72.7508 185° South 95 109 6,600  Climbing Boston Center
12:39PM 41.1908 -72.7583 193° South 93 107 6,600 -60 Level Boston Center
12:40PM 41.1647 -72.7672 194° South 96 110 6,500 -60 Descending Boston Center
12:41PM 41.1369 -72.7775 196° South 101 116 6,500  Level Boston Center
12:42PM 41.1108 -72.7869 195° South 98 113 6,600  Climbing Boston Center
12:43PM 41.0839 -72.7939 191° South 98 113 6,600 -60 Level Boston Center
12:44PM 41.0517 -72.8042 194° South 98 113 6,500 -240 Descending Boston Center
12:45PM 41.0236 -72.8100 189° South 101 116 6,200 -540 Descending Boston Center
12:46PM 40.9964 -72.8167 190° South 99 114 5,400 -840 Descending Boston Center
12:47PM 40.9717 -72.8239 192° South 94 108 4,600 -840 Descending Boston Center
12:48PM 40.9469 -72.8339 197° South 93 107 3,800 -780 Descending Boston Center
12:49PM 40.9233 -72.8425 195° South 91 105 3,000 -780 Descending Boston Center
12:50PM 40.9003 -72.8497 193° South 88 101 2,300 -660 Descending Boston Center
12:51PM 40.8744 -72.8625 201° Southwest 84 97 1,700 -540 Descending Boston Center
12:52PM 40.8547 -72.8744 205° Southwest 81 93 1,200 -360 Descending Boston Center
12:53PM 40.8350 -72.8872 206° Southwest 80 92 1,000 -120 Descending Boston Center
12:54PM 40.8139 -72.8867 179° South 85 98 1,000 -180 Level Boston Center
12:55PM 40.7981 -72.8619 130° Southeast 89 102 700 -360 Descending Boston Center
12:56PM 40.8103 -72.8572 16° North 82 94 300 -300 Descending Boston Center
12:57PM 40.8208 -72.8753 308° West 78 90 200 -120 Descending Boston Center